createdAt,value
2018-09-28T00:02:04.530Z,14.20
2018-09-28T00:07:30.669Z,14.20
2018-09-28T00:09:59.461Z,14.10
2018-09-28T00:12:28.289Z,14.10
2018-09-28T00:14:57.221Z,14.00
2018-09-28T00:17:26.054Z,13.90
2018-09-28T00:19:54.878Z,14.00
2018-09-28T00:22:23.715Z,14.10
2018-09-28T00:24:52.553Z,14.00
2018-09-28T00:27:21.305Z,13.90
2018-09-28T00:29:50.171Z,13.90
2018-09-28T00:32:18.973Z,13.60
2018-09-28T00:34:51.342Z,13.50
2018-09-28T00:37:20.338Z,13.50
2018-09-28T00:39:49.399Z,13.40
2018-09-28T00:42:19.075Z,13.50
2018-09-28T00:44:47.873Z,13.40
2018-09-28T00:47:16.689Z,13.50
2018-09-28T00:49:45.470Z,13.50
2018-09-28T00:52:14.473Z,13.50
2018-09-28T00:54:43.260Z,13.40
2018-09-28T00:57:12.067Z,13.40
2018-09-28T00:59:41.021Z,13.40
2018-09-28T01:02:09.813Z,13.20
2018-09-28T01:04:38.642Z,13.20
2018-09-28T01:07:07.447Z,13.20
2018-09-28T01:09:36.250Z,13.20
2018-09-28T01:12:05.213Z,13.10
2018-09-28T01:14:34.037Z,13.00
2018-09-28T01:17:02.849Z,13.00
2018-09-28T01:19:31.689Z,13.00
2018-09-28T01:22:00.485Z,13.20
2018-09-28T01:24:29.346Z,13.20
2018-09-28T01:26:58.174Z,13.10
2018-09-28T01:29:27.227Z,13.00
2018-09-28T01:31:56.094Z,12.90
2018-09-28T01:34:24.919Z,12.90
2018-09-28T01:36:54.775Z,13.00
2018-09-28T01:39:23.621Z,13.00
2018-09-28T01:41:52.414Z,13.10
2018-09-28T01:44:21.244Z,13.10
2018-09-28T01:46:50.065Z,13.00
2018-09-28T01:49:18.861Z,13.00
2018-09-28T01:51:47.667Z,13.00
2018-09-28T01:54:16.441Z,13.00
2018-09-28T01:56:45.218Z,12.80
2018-09-28T01:59:14.034Z,12.80
2018-09-28T02:01:42.941Z,12.90
2018-09-28T02:04:11.757Z,12.90
2018-09-28T02:06:40.568Z,13.00
2018-09-28T02:09:09.979Z,12.90
2018-09-28T02:11:38.779Z,12.80
2018-09-28T02:14:07.938Z,12.60
2018-09-28T02:16:36.745Z,12.70
2018-09-28T02:19:05.986Z,12.60
2018-09-28T02:21:34.849Z,12.70
2018-09-28T02:24:03.690Z,12.60
2018-09-28T02:26:32.562Z,12.70
2018-09-28T02:29:01.799Z,12.70
2018-09-28T02:31:30.649Z,12.70
2018-09-28T02:33:59.631Z,12.70
2018-09-28T02:36:28.688Z,12.60
2018-09-28T02:38:57.489Z,12.60
2018-09-28T02:41:26.318Z,12.50
2018-09-28T02:43:55.369Z,12.50
2018-09-28T02:46:24.485Z,12.40
2018-09-28T02:48:53.257Z,12.50
2018-09-28T02:51:22.052Z,12.50
2018-09-28T02:53:50.866Z,12.30
2018-09-28T02:56:20.110Z,12.40
2018-09-28T02:58:48.968Z,12.30
2018-09-28T03:01:21.309Z,12.10
2018-09-28T03:03:50.121Z,12.10
2018-09-28T03:06:18.972Z,12.10
2018-09-28T03:08:47.755Z,12.10
2018-09-28T03:11:16.567Z,12.00
2018-09-28T03:13:45.474Z,11.90
2018-09-28T03:16:14.303Z,11.90
2018-09-28T03:18:43.120Z,11.80
2018-09-28T03:21:11.953Z,11.80
2018-09-28T03:23:40.765Z,11.60
2018-09-28T03:26:09.729Z,11.60
2018-09-28T03:28:38.553Z,11.70
2018-09-28T03:31:07.346Z,11.70
2018-09-28T03:33:36.211Z,11.60
2018-09-28T03:36:05.058Z,11.50
2018-09-28T03:38:34.429Z,11.60
2018-09-28T03:41:03.510Z,11.30
2018-09-28T03:43:36.092Z,11.20
2018-09-28T03:46:05.050Z,11.20
2018-09-28T03:48:33.858Z,11.30
2018-09-28T03:51:02.832Z,11.30
2018-09-28T03:53:31.866Z,11.30
2018-09-28T03:56:00.820Z,11.20
2018-09-28T03:58:29.637Z,11.20
2018-09-28T04:00:58.484Z,11.10
2018-09-28T04:03:27.305Z,11.00
2018-09-28T04:05:56.374Z,11.00
2018-09-28T04:08:25.427Z,10.90
2018-09-28T04:10:54.326Z,10.90
2018-09-28T04:13:23.265Z,11.00
2018-09-28T04:15:52.361Z,11.00
2018-09-28T04:18:21.177Z,11.00
2018-09-28T04:20:50.007Z,10.90
2018-09-28T04:23:18.839Z,10.90
2018-09-28T04:25:51.161Z,10.80
2018-09-28T04:28:20.188Z,10.80
2018-09-28T04:30:49.039Z,10.80
2018-09-28T04:33:17.860Z,10.70
2018-09-28T04:35:46.765Z,10.70
2018-09-28T04:38:15.625Z,10.60
2018-09-28T04:40:44.439Z,10.60
2018-09-28T04:43:13.639Z,10.60
2018-09-28T04:45:42.487Z,10.80
2018-09-28T04:48:11.382Z,10.80
2018-09-28T04:50:40.226Z,10.90
2018-09-28T04:53:09.088Z,10.80
2018-09-28T04:55:37.873Z,10.80
2018-09-28T04:58:07.728Z,10.80
2018-09-28T05:00:36.558Z,10.70
2018-09-28T05:03:05.419Z,10.60
2018-09-28T05:05:34.890Z,10.60
2018-09-28T05:08:03.781Z,10.60
2018-09-28T05:10:32.719Z,10.50
2018-09-28T05:13:01.740Z,10.30
2018-09-28T05:15:30.570Z,10.30
2018-09-28T05:17:59.404Z,10.30
2018-09-28T05:20:37.108Z,10.30
2018-09-28T05:23:06.657Z,10.40
2018-09-28T05:25:35.449Z,10.40
2018-09-28T05:28:04.235Z,10.30
2018-09-28T05:30:32.993Z,10.20
2018-09-28T05:33:01.872Z,10.20
2018-09-28T05:35:30.594Z,10.20
2018-09-28T05:37:59.414Z,10.20
2018-09-28T05:40:28.297Z,10.10
2018-09-28T05:42:57.093Z,10.10
2018-09-28T05:45:25.946Z,10.10
2018-09-28T05:47:54.877Z,10.10
2018-09-28T05:50:23.778Z,10.00
2018-09-28T05:52:52.649Z,10.10
2018-09-28T05:55:21.472Z,10.20
2018-09-28T05:57:52.334Z,10.20
2018-09-28T06:00:26.510Z,10.10
2018-09-28T06:03:00.866Z,10.00
2018-09-28T06:05:34.192Z,10.00
2018-09-28T06:08:03.080Z,10.00
2018-09-28T06:10:32.181Z,10.10
2018-09-28T06:13:00.981Z,10.10
2018-09-28T06:15:30.074Z,10.20
2018-09-28T06:17:59.104Z,10.20
2018-09-28T06:20:27.838Z,10.40
2018-09-28T06:22:56.672Z,10.50
2018-09-28T06:25:25.453Z,10.50
2018-09-28T06:27:54.241Z,10.60
2018-09-28T06:30:23.101Z,10.70
2018-09-28T06:32:51.959Z,10.70
2018-09-28T06:35:20.764Z,10.70
2018-09-28T06:37:49.581Z,10.70
2018-09-28T06:40:18.374Z,10.80
2018-09-28T06:42:47.149Z,10.60
2018-09-28T06:45:15.958Z,10.60
2018-09-28T06:47:44.800Z,10.60
2018-09-28T06:50:13.873Z,10.70
2018-09-28T06:52:42.701Z,10.70
2018-09-28T06:55:11.502Z,10.70
2018-09-28T06:57:40.283Z,10.70
2018-09-28T07:00:09.868Z,10.70
2018-09-28T07:02:38.772Z,10.80
2018-09-28T07:05:07.658Z,10.80
2018-09-28T07:07:36.509Z,10.90
2018-09-28T07:10:05.303Z,10.90
2018-09-28T07:12:34.201Z,10.90
2018-09-28T07:15:06.029Z,10.90
2018-09-28T07:17:35.087Z,11.00
2018-09-28T07:20:03.918Z,11.10
2018-09-28T07:22:32.805Z,11.20
2018-09-28T07:25:01.653Z,11.30
2018-09-28T07:27:30.436Z,11.30
2018-09-28T07:29:59.403Z,11.40
2018-09-28T07:32:28.338Z,11.30
2018-09-28T07:34:57.315Z,11.40
2018-09-28T07:37:26.115Z,11.40
2018-09-28T07:39:54.973Z,11.50
2018-09-28T07:42:23.864Z,11.60
2018-09-28T07:44:52.616Z,12.30
2018-09-28T07:47:21.671Z,12.90
2018-09-28T07:49:50.462Z,13.40
2018-09-28T07:52:19.246Z,13.90
2018-09-28T07:54:48.064Z,14.20
2018-09-28T07:57:20.898Z,14.60
2018-09-28T07:59:49.917Z,15.00
2018-09-28T08:02:18.869Z,15.30
2018-09-28T08:04:47.709Z,15.90
2018-09-28T08:07:16.753Z,16.10
2018-09-28T08:09:46.883Z,16.00
2018-09-28T08:12:15.690Z,16.30
2018-09-28T08:14:44.534Z,16.40
2018-09-28T08:17:13.339Z,16.50
2018-09-28T08:19:42.138Z,17.00
2018-09-28T08:22:10.953Z,16.90
2018-09-28T08:24:39.924Z,16.90
2018-09-28T08:27:08.673Z,16.90
2018-09-28T08:29:37.461Z,17.10
2018-09-28T08:32:06.334Z,16.80
2018-09-28T08:34:35.358Z,16.60
2018-09-28T08:37:04.165Z,16.70
2018-09-28T08:39:32.978Z,16.90
2018-09-28T08:42:01.789Z,17.20
2018-09-28T08:44:30.593Z,17.50
2018-09-28T08:46:59.405Z,17.80
2018-09-28T08:49:28.373Z,17.80
2018-09-28T08:51:57.561Z,17.70
2018-09-28T08:54:26.383Z,17.50
2018-09-28T08:56:55.246Z,17.60
2018-09-28T08:59:25.001Z,17.70
2018-09-28T09:01:53.831Z,17.80
2018-09-28T09:04:22.597Z,17.90
2018-09-28T09:06:51.411Z,18.20
2018-09-28T09:09:20.198Z,18.70
2018-09-28T09:11:49.123Z,18.90
2018-09-28T09:14:17.968Z,19.00
2018-09-28T09:16:46.953Z,19.40
2018-09-28T09:19:15.742Z,19.70
2018-09-28T09:21:44.561Z,19.50
2018-09-28T09:24:13.338Z,19.10
2018-09-28T09:26:42.133Z,18.90
2018-09-28T09:29:10.942Z,18.90
2018-09-28T09:31:40.247Z,18.90
2018-09-28T09:34:09.025Z,19.10
2018-09-28T09:36:37.905Z,19.50
2018-09-28T09:39:08.393Z,19.50
2018-09-28T09:41:38.067Z,19.00
2018-09-28T09:44:07.282Z,18.60
2018-09-28T09:46:36.346Z,18.60
2018-09-28T09:49:05.170Z,19.10
2018-09-28T09:51:34.135Z,19.20
2018-09-28T09:54:02.974Z,19.10
2018-09-28T09:56:31.794Z,19.40
2018-09-28T09:59:00.573Z,19.60
2018-09-28T10:01:35.147Z,19.60
2018-09-28T10:04:08.493Z,19.80
2018-09-28T10:06:37.410Z,19.70
2018-09-28T10:09:08.944Z,19.80
2018-09-28T10:11:38.097Z,19.70
2018-09-28T10:14:06.934Z,19.90
2018-09-28T10:16:35.733Z,19.10
2018-09-28T10:19:04.956Z,18.50
2018-09-28T10:21:33.755Z,18.30
2018-09-28T10:24:02.647Z,18.50
2018-09-28T10:26:31.453Z,18.90
2018-09-28T10:29:00.295Z,18.80
2018-09-28T10:31:29.102Z,19.00
2018-09-28T10:33:58.046Z,19.20
2018-09-28T10:36:26.878Z,18.70
2018-09-28T10:38:55.709Z,18.40
2018-09-28T10:41:24.505Z,18.20
2018-09-28T10:43:53.329Z,18.10
2018-09-28T10:46:24.203Z,18.40
2018-09-28T10:48:53.171Z,18.80
2018-09-28T10:51:22.162Z,19.10
2018-09-28T10:53:50.874Z,19.40
2018-09-28T10:56:19.869Z,19.20
2018-09-28T10:58:48.717Z,18.80
2018-09-28T11:01:19.075Z,18.50
2018-09-28T11:03:47.893Z,18.30
2018-09-28T11:06:16.687Z,18.40
2018-09-28T11:08:45.530Z,18.50
2018-09-28T11:11:14.483Z,18.80
2018-09-28T11:13:43.332Z,18.90
2018-09-28T11:16:12.138Z,19.20
2018-09-28T11:18:40.948Z,19.40
2018-09-28T11:21:09.789Z,19.40
2018-09-28T11:23:38.557Z,19.30
2018-09-28T11:26:07.354Z,19.00
2018-09-28T11:28:39.446Z,18.90
2018-09-28T11:31:08.241Z,18.60
2018-09-28T11:33:37.121Z,18.20
2018-09-28T11:36:05.873Z,18.00
2018-09-28T11:38:34.704Z,17.60
2018-09-28T11:41:03.494Z,17.40
2018-09-28T11:43:32.294Z,17.70
2018-09-28T11:46:01.242Z,18.10
2018-09-28T11:48:30.034Z,18.60
2018-09-28T11:50:58.897Z,18.70
2018-09-28T11:53:27.973Z,18.10
2018-09-28T11:55:56.803Z,18.30
2018-09-28T11:58:25.889Z,18.60
2018-09-28T12:00:54.738Z,18.80
2018-09-28T12:03:23.694Z,18.70
2018-09-28T12:05:52.683Z,18.30
2018-09-28T12:08:21.865Z,17.80
2018-09-28T12:10:52.444Z,17.60
2018-09-28T12:13:21.759Z,17.40
2018-09-28T12:15:50.591Z,17.10
2018-09-28T12:18:19.448Z,16.90
2018-09-28T12:20:48.187Z,16.90
2018-09-28T12:23:17.094Z,17.00
2018-09-28T12:25:45.900Z,16.90
2018-09-28T12:28:14.976Z,16.80
2018-09-28T12:30:43.825Z,17.00
2018-09-28T12:33:12.812Z,17.00
2018-09-28T12:35:41.654Z,16.80
2018-09-28T12:38:10.432Z,16.60
2018-09-28T12:40:39.231Z,16.60
2018-09-28T12:43:08.225Z,16.60
2018-09-28T12:45:37.116Z,16.50
2018-09-28T12:48:05.946Z,16.70
2018-09-28T12:50:34.715Z,16.90
2018-09-28T12:53:03.576Z,17.00
2018-09-28T12:55:32.862Z,17.10
2018-09-28T12:58:01.982Z,17.00
2018-09-28T13:00:30.965Z,17.00
2018-09-28T13:02:59.761Z,17.00
2018-09-28T13:05:28.589Z,17.20
2018-09-28T13:07:57.369Z,17.30
2018-09-28T13:10:26.175Z,17.10
2018-09-28T13:12:55.247Z,17.10
2018-09-28T13:15:25.161Z,17.30
2018-09-28T13:17:54.720Z,17.10
2018-09-28T13:20:23.759Z,16.90
2018-09-28T13:22:52.498Z,16.80
2018-09-28T13:25:21.293Z,16.60
2018-09-28T13:27:50.314Z,16.80
2018-09-28T13:30:19.152Z,16.90
2018-09-28T13:32:48.269Z,16.70
2018-09-28T13:35:17.058Z,16.70
2018-09-28T13:37:45.849Z,16.60
2018-09-28T13:40:14.661Z,16.10
2018-09-28T13:42:43.505Z,16.00
2018-09-28T13:45:12.367Z,15.90
2018-09-28T13:47:41.480Z,15.70
2018-09-28T13:50:10.304Z,15.70
2018-09-28T13:52:39.281Z,15.90
2018-09-28T13:55:08.503Z,16.00
2018-09-28T13:57:37.826Z,16.10
2018-09-28T14:00:07.487Z,16.20
2018-09-28T14:02:36.569Z,16.30
2018-09-28T14:05:05.433Z,16.10
2018-09-28T14:07:34.231Z,15.90
2018-09-28T14:10:03.048Z,15.70
2018-09-28T14:12:31.911Z,15.70
2018-09-28T14:15:00.693Z,15.70
2018-09-28T14:17:29.493Z,15.80
2018-09-28T14:19:58.325Z,15.70
2018-09-28T14:22:27.175Z,15.70
2018-09-28T14:24:55.964Z,15.60
2018-09-28T14:27:24.759Z,15.60
2018-09-28T14:29:53.585Z,15.70
2018-09-28T14:32:22.478Z,15.80
2018-09-28T14:34:51.338Z,15.90
2018-09-28T14:37:20.104Z,15.90
2018-09-28T14:39:48.925Z,15.90
2018-09-28T14:42:17.841Z,16.00
2018-09-28T14:44:46.640Z,16.00
2018-09-28T14:47:15.421Z,15.90
2018-09-28T14:49:44.314Z,15.80
2018-09-28T14:52:13.228Z,15.70
2018-09-28T14:54:42.087Z,15.60
2018-09-28T14:57:10.829Z,15.50
2018-09-28T14:59:39.617Z,15.30
2018-09-28T15:02:09.514Z,15.20
2018-09-28T15:04:38.439Z,15.30
2018-09-28T15:07:07.627Z,15.30
2018-09-28T15:09:36.423Z,15.20
2018-09-28T15:12:05.275Z,15.20
2018-09-28T15:14:34.496Z,15.20
2018-09-28T15:17:03.294Z,15.10
2018-09-28T15:19:32.102Z,15.20
2018-09-28T15:22:00.904Z,15.10
2018-09-28T15:24:29.683Z,15.10
2018-09-28T15:26:58.507Z,15.00
2018-09-28T15:29:27.459Z,15.00
2018-09-28T15:31:56.426Z,15.00
2018-09-28T15:34:25.229Z,14.80
2018-09-28T15:36:54.425Z,14.70
2018-09-28T15:39:23.220Z,14.70
2018-09-28T15:44:27.266Z,14.60
2018-09-28T15:46:56.090Z,14.50
2018-09-28T15:49:25.102Z,14.40
2018-09-28T15:51:54.131Z,14.40
2018-09-28T15:54:22.906Z,14.20
2018-09-28T15:56:52.007Z,14.10
2018-09-28T15:59:20.697Z,14.00
2018-09-28T16:01:49.596Z,14.00
2018-09-28T16:04:18.654Z,14.00
2018-09-28T16:06:47.488Z,14.00
2018-09-28T16:09:16.303Z,13.80
2018-09-28T16:11:45.091Z,13.90
2018-09-28T16:14:13.987Z,13.90
2018-09-28T16:16:42.794Z,13.90
2018-09-28T16:19:11.573Z,13.80
2018-09-28T16:21:40.397Z,13.90
2018-09-28T16:24:09.251Z,13.90
2018-09-28T16:26:39.195Z,13.90
2018-09-28T16:29:08.051Z,13.90
2018-09-28T16:31:36.890Z,13.70
2018-09-28T16:34:05.864Z,13.50
2018-09-28T16:36:34.670Z,13.50
2018-09-28T16:39:03.786Z,13.40
2018-09-28T16:41:32.700Z,13.40
2018-09-28T16:44:01.739Z,13.40
2018-09-28T16:46:30.541Z,13.30
2018-09-28T16:48:59.333Z,13.10
2018-09-28T16:51:28.165Z,13.10
2018-09-28T16:53:56.950Z,13.10
2018-09-28T16:56:25.996Z,13.00
2018-09-28T16:58:55.021Z,12.90
2018-09-28T17:01:23.823Z,12.90
2018-09-28T17:03:52.640Z,12.90
2018-09-28T17:06:21.626Z,12.80
2018-09-28T17:08:50.438Z,12.80
2018-09-28T17:11:19.277Z,12.70
2018-09-28T17:13:48.286Z,12.70
2018-09-28T17:16:17.320Z,12.50
2018-09-28T17:18:46.117Z,12.50
2018-09-28T17:21:14.925Z,12.50
2018-09-28T17:23:43.737Z,12.40
2018-09-28T17:26:12.602Z,12.40
2018-09-28T17:28:41.976Z,12.40
2018-09-28T17:31:11.779Z,12.50
2018-09-28T17:33:40.697Z,12.30
2018-09-28T17:36:09.750Z,12.40
2018-09-28T17:38:38.853Z,12.30
2018-09-28T17:41:08.135Z,12.00
2018-09-28T17:43:36.937Z,11.90
2018-09-28T17:46:05.790Z,11.90
2018-09-28T17:48:34.578Z,11.90
2018-09-28T17:51:03.366Z,11.80
2018-09-28T17:53:32.202Z,11.80
2018-09-28T17:56:00.992Z,11.80
2018-09-28T17:58:30.055Z,11.90
2018-09-28T18:00:59.581Z,11.90
2018-09-28T18:03:28.508Z,11.70
2018-09-28T18:05:57.305Z,11.70
2018-09-28T18:08:26.384Z,11.70
2018-09-28T18:10:55.425Z,11.60
2018-09-28T18:13:24.478Z,11.50
2018-09-28T18:15:53.310Z,11.60
2018-09-28T18:18:22.131Z,11.50
2018-09-28T18:20:50.906Z,11.40
2018-09-28T18:23:19.777Z,11.40
2018-09-28T18:25:48.622Z,11.30
2018-09-28T18:28:17.393Z,11.40
2018-09-28T18:30:46.197Z,11.40
2018-09-28T18:33:14.939Z,11.40
2018-09-28T18:35:43.814Z,11.40
2018-09-28T18:38:12.630Z,11.30
2018-09-28T18:40:41.429Z,11.30
2018-09-28T18:43:10.318Z,11.30
2018-09-28T18:45:39.112Z,11.30
2018-09-28T18:48:07.939Z,11.30
2018-09-28T18:50:36.761Z,11.30
2018-09-28T18:53:05.693Z,11.30
2018-09-28T18:55:34.580Z,11.20
2018-09-28T18:58:04.020Z,11.10
2018-09-28T19:00:36.078Z,11.10
2018-09-28T19:03:05.090Z,11.10
2018-09-28T19:05:34.557Z,11.10
2018-09-28T19:08:03.395Z,11.10
2018-09-28T19:10:32.214Z,11.00
2018-09-28T19:13:01.091Z,11.00
2018-09-28T19:15:29.900Z,11.00
2018-09-28T19:17:59.017Z,10.90
2018-09-28T19:20:28.274Z,11.00
2018-09-28T19:22:57.150Z,10.90
2018-09-28T19:25:26.205Z,11.00
2018-09-28T19:27:55.330Z,10.90
2018-09-28T19:30:24.271Z,10.90
2018-09-28T19:32:53.358Z,10.90
2018-09-28T19:35:22.263Z,10.80
2018-09-28T19:37:51.084Z,10.70
2018-09-28T19:40:20.759Z,10.70
2018-09-28T19:42:49.674Z,10.50
2018-09-28T19:45:18.486Z,10.50
2018-09-28T19:47:47.430Z,10.40
2018-09-28T19:50:16.375Z,10.50
2018-09-28T19:52:45.342Z,10.60
2018-09-28T19:55:14.221Z,10.70
2018-09-28T19:57:43.016Z,10.60
2018-09-28T20:00:11.834Z,10.60
2018-09-28T20:02:40.631Z,10.50
2018-09-28T20:05:09.451Z,10.50
2018-09-28T20:07:38.286Z,10.40
2018-09-28T20:10:07.233Z,10.40
2018-09-28T20:12:36.106Z,10.30
2018-09-28T20:15:04.916Z,10.30
2018-09-28T20:17:33.779Z,10.20
2018-09-28T20:20:03.038Z,10.30
2018-09-28T20:22:31.846Z,10.30
2018-09-28T20:25:01.514Z,10.30
2018-09-28T20:27:32.697Z,10.20
2018-09-28T20:30:01.994Z,10.10
2018-09-28T20:32:31.000Z,10.10
2018-09-28T20:34:59.961Z,10.00
2018-09-28T20:37:28.751Z,10.00
2018-09-28T20:39:57.571Z,10.10
2018-09-28T20:42:26.614Z,10.10
2018-09-28T20:44:55.547Z,10.10
2018-09-28T20:47:24.350Z,10.10
2018-09-28T20:49:53.369Z,10.00
2018-09-28T20:52:22.158Z,10.00
2018-09-28T20:54:51.121Z,10.00
2018-09-28T20:57:19.956Z,10.00
2018-09-28T20:59:48.838Z,10.00
2018-09-28T21:02:17.685Z,9.90
2018-09-28T21:04:49.045Z,9.90
2018-09-28T21:07:17.842Z,9.90
2018-09-28T21:09:48.203Z,9.80
2018-09-28T21:12:17.469Z,9.80
2018-09-28T21:14:46.285Z,9.80
2018-09-28T21:17:15.129Z,9.80
2018-09-28T21:19:44.029Z,9.90
2018-09-28T21:22:12.987Z,9.90
2018-09-28T21:24:41.802Z,9.90
2018-09-28T21:27:10.574Z,9.90
2018-09-28T21:29:39.397Z,9.90
2018-09-28T21:32:08.361Z,9.90
2018-09-28T21:34:37.243Z,9.90
2018-09-28T21:37:06.157Z,9.80
2018-09-28T21:39:34.968Z,9.70
2018-09-28T21:42:03.837Z,9.60
2018-09-28T21:44:32.806Z,9.60
2018-09-28T21:47:01.634Z,9.60
2018-09-28T21:49:30.441Z,9.60
2018-09-28T21:51:59.253Z,9.60
2018-09-28T21:54:28.092Z,9.50
2018-09-28T21:56:56.856Z,9.50
2018-09-28T21:59:25.643Z,9.40
2018-09-28T22:01:54.483Z,9.40
2018-09-28T22:04:23.293Z,9.50
2018-09-28T22:06:52.085Z,9.40
2018-09-28T22:09:20.900Z,9.40
2018-09-28T22:11:49.689Z,9.40
2018-09-28T22:14:19.984Z,9.30
2018-09-28T22:16:48.995Z,9.30
2018-09-28T22:19:17.776Z,9.30
2018-09-28T22:21:46.559Z,9.30
2018-09-28T22:24:15.461Z,9.30
2018-09-28T22:26:44.305Z,9.20
2018-09-28T22:29:13.117Z,9.10
2018-09-28T22:31:42.070Z,9.10
2018-09-28T22:34:10.880Z,9.00
2018-09-28T22:36:39.734Z,9.00
2018-09-28T22:39:10.173Z,9.00
2018-09-28T22:41:39.138Z,9.00
2018-09-28T22:44:08.167Z,8.90
2018-09-28T22:46:37.443Z,8.90
2018-09-28T22:49:06.258Z,8.90
2018-09-28T22:51:35.072Z,8.80
2018-09-28T22:54:03.893Z,8.90
2018-09-28T22:56:32.773Z,8.80
2018-09-28T22:59:01.618Z,8.80
2018-09-28T23:01:30.551Z,8.80
2018-09-28T23:03:59.357Z,8.70
2018-09-28T23:06:28.240Z,8.70
2018-09-28T23:08:57.035Z,8.70
2018-09-28T23:11:25.828Z,8.70
2018-09-28T23:13:54.641Z,8.70
2018-09-28T23:16:24.340Z,8.60
2018-09-28T23:18:53.164Z,8.60
2018-09-28T23:21:22.173Z,8.60
2018-09-28T23:23:50.978Z,8.60
2018-09-28T23:26:19.957Z,8.60
2018-09-28T23:28:48.779Z,8.40
2018-09-28T23:31:17.594Z,8.40
2018-09-28T23:33:46.924Z,8.40
2018-09-28T23:36:15.879Z,8.40
2018-09-28T23:38:44.690Z,8.40
2018-09-28T23:41:13.755Z,8.30
2018-09-28T23:43:42.572Z,8.30
2018-09-28T23:46:11.534Z,8.40
2018-09-28T23:48:40.610Z,8.40
2018-09-28T23:51:09.441Z,8.30
2018-09-28T23:53:39.287Z,8.30
2018-09-28T23:56:08.363Z,8.30
2018-09-28T23:58:37.179Z,8.30
